Time;durP1;ratioP1;P1;durP2;ratioP2;P2;SDS_P1;SDS_P2;PMS_P1;PMS_P2;Temp;Humidity;BMP_temperature;BMP_pressure;BME280_temperature;BME280_humidity;BME280_pressure;Samples;Min_cycle;Max_cycle;Signal;HPM_P1;HPM_P2
2024/04/16 00:00:22;;;;;;;5.22;0.80;;;;;;;14.24;44.57;100250.81;5388141;26;20132;-64
2024/04/16 00:02:48;;;;;;;2.03;1.13;;;;;;;14.22;44.40;100258.25;5419485;26;20007;-64
2024/04/16 00:05:13;;;;;;;1.25;0.63;;;;;;;14.14;44.47;100260.94;5359039;26;20011;-64
2024/04/16 00:07:39;;;;;;;2.97;0.95;;;;;;;14.10;44.80;100256.88;5417850;26;20619;-64
2024/04/16 00:10:05;;;;;;;3.58;0.80;;;;;;;14.13;44.76;100244.91;5388361;26;20014;-65
2024/04/16 00:12:30;;;;;;;2.17;0.60;;;;;;;14.12;44.47;100222.56;5419220;26;20000;-65
2024/04/16 00:15:21;;;;;;;2.67;0.90;;;;;;;14.09;44.97;100224.72;5388053;26;20004;-65
2024/04/16 00:17:47;;;;;;;2.50;0.50;;;;;;;14.07;44.62;100214.09;5387953;26;20333;-65
2024/04/16 00:20:13;;;;;;;9.27;0.80;;;;;;;14.08;44.70;100207.72;5417412;26;19996;-65
2024/04/16 00:22:38;;;;;;;1.88;0.75;;;;;;;14.06;44.80;100207.06;5388033;26;20000;-65
2024/04/16 00:25:04;;;;;;;2.50;1.20;;;;;;;14.04;44.86;100209.06;5339302;26;20034;-65
2024/04/16 00:27:30;;;;;;;4.53;0.93;;;;;;;14.02;44.85;100197.59;5382129;26;20015;-64
2024/04/16 00:29:59;;;;;;;3.42;0.93;;;;;;;14.04;44.49;100194.75;5352824;26;20004;-65
2024/04/16 00:32:25;;;;;;;3.40;0.30;;;;;;;14.01;44.75;100186.00;5381818;26;20015;-65
2024/04/16 00:34:50;;;;;;;4.57;0.82;;;;;;;13.98;44.76;100172.88;5323867;26;19996;-64
2024/04/16 00:37:15;;;;;;;6.40;1.20;;;;;;;13.95;44.35;100177.75;5295393;26;20138;-64
2024/04/16 00:39:41;;;;;;;4.18;1.05;;;;;;;13.96;44.49;100179.41;5352860;26;20077;-64
2024/04/16 00:42:07;;;;;;;4.45;1.00;;;;;;;13.93;44.21;100169.00;5324270;26;20329;-65
2024/04/16 00:44:33;;;;;;;2.92;0.90;;;;;;;13.95;44.60;100172.38;5352727;26;20010;-64
2024/04/16 00:46:59;;;;;;;4.18;0.70;;;;;;;13.93;44.48;100163.63;5352495;26;20000;-64
2024/04/16 00:49:24;;;;;;;2.65;0.70;;;;;;;13.86;44.30;100152.69;5352543;26;20081;-64
2024/04/16 00:51:50;;;;;;;2.72;0.85;;;;;;;13.85;44.41;100150.13;5381686;26;20007;-64
2024/04/16 00:54:15;;;;;;;6.95;0.68;;;;;;;13.86;44.44;100149.13;5323703;26;20004;-64
2024/04/16 00:56:41;;;;;;;1.15;0.60;;;;;;;13.83;44.61;100141.38;5381694;26;20452;-65
2024/04/16 00:59:07;;;;;;;3.92;0.70;;;;;;;13.83;44.29;100136.84;5352420;26;20459;-64
2024/04/16 01:01:32;;;;;;;2.80;0.50;;;;;;;13.82;44.49;100131.63;5381538;26;20000;-64
2024/04/16 01:03:59;;;;;;;5.43;0.70;;;;;;;13.83;44.48;100130.63;5381426;26;20023;-64
2024/04/16 01:06:25;;;;;;;1.55;0.40;;;;;;;13.81;44.18;100135.34;5352376;26;20436;-64
2024/04/16 01:08:50;;;;;;;4.25;1.42;;;;;;;13.80;44.24;100136.34;5352120;26;20015;-64
2024/04/16 01:11:25;;;;;;;3.60;0.50;;;;;;;13.76;44.21;100129.63;5352139;26;20000;-64
2024/04/16 01:13:52;;;;;;;1.10;0.85;;;;;;;13.71;44.17;100121.19;5352457;26;20004;-64
2024/04/16 01:16:18;;;;;;;5.25;0.93;;;;;;;13.70;43.91;100128.44;5323407;26;20103;-65
2024/04/16 01:18:43;;;;;;;0.50;0.40;;;;;;;13.70;44.23;100136.50;5323321;26;20460;-64
2024/04/16 01:21:09;;;;;;;1.50;0.52;;;;;;;13.65;44.22;100111.09;5380929;26;20012;-65
2024/04/16 01:23:34;;;;;;;0.57;0.50;;;;;;;13.65;44.01;100111.09;5351854;26;20074;-64
2024/04/16 01:26:00;;;;;;;1.70;0.52;;;;;;;13.65;44.21;100111.09;5416478;26;20004;-64
2024/04/16 01:28:25;;;;;;;6.40;0.50;;;;;;;13.62;44.17;100103.34;5358278;26;20333;-64
2024/04/16 01:30:51;;;;;;;2.80;0.82;;;;;;;13.61;44.08;100105.19;5387445;26;20339;-64
2024/04/16 01:33:16;;;;;;;2.75;1.08;;;;;;;13.61;43.90;100107.91;5387409;26;19999;-64
2024/04/16 01:35:41;;;;;;;2.58;0.55;;;;;;;13.61;43.83;100098.97;5387283;26;20008;-65
2024/04/16 01:38:07;;;;;;;6.43;0.88;;;;;;;13.58;44.04;100094.78;5416990;26;20343;-65
2024/04/16 01:40:32;;;;;;;2.53;0.77;;;;;;;13.58;43.83;100094.78;5386936;26;20000;-64
2024/04/16 01:42:58;;;;;;;2.38;0.70;;;;;;;13.56;44.32;100085.19;5417218;26;20003;-64
2024/04/16 01:45:23;;;;;;;8.00;0.70;;;;;;;13.54;43.94;100084.50;5419609;26;20444;-64
2024/04/16 01:47:49;;;;;;;2.95;0.70;;;;;;;13.50;44.01;100077.78;5389040;26;20010;-64
2024/04/16 01:50:14;;;;;;;4.47;0.70;;;;;;;13.50;44.03;100075.09;5389362;26;20000;-64
2024/04/16 01:52:40;;;;;;;4.43;0.50;;;;;;;13.49;43.71;100074.22;5389742;26;20405;-65
2024/04/16 01:55:05;;;;;;;6.85;0.68;;;;;;;13.52;43.70;100078.44;5418922;26;20010;-65
2024/04/16 01:57:31;;;;;;;2.58;0.73;;;;;;;13.53;43.72;100086.38;5386433;26;19996;-64
2024/04/16 01:59:56;;;;;;;3.53;1.38;;;;;;;13.52;43.91;100078.44;5357372;26;20010;-64
2024/04/16 02:02:22;;;;;;;5.32;1.33;;;;;;;13.52;43.98;100081.13;5418198;26;20000;-64
2024/04/16 02:04:47;;;;;;;1.23;0.63;;;;;;;13.52;43.83;100081.97;5386841;26;20076;-64
2024/04/16 02:07:12;;;;;;;3.10;0.50;;;;;;;13.56;43.71;100086.03;5386552;26;20003;-65
2024/04/16 02:09:38;;;;;;;3.45;0.70;;;;;;;13.57;43.96;100076.94;5386743;26;20068;-64
2024/04/16 02:12:04;;;;;;;5.40;0.75;;;;;;;13.60;43.96;100081.13;5357592;26;20000;-64
2024/04/16 02:14:29;;;;;;;5.53;0.80;;;;;;;13.63;44.00;100094.25;5416266;26;20470;-64
2024/04/16 02:16:56;;;;;;;8.80;2.05;;;;;;;13.61;43.78;100088.22;5417854;26;20003;-64
2024/04/16 02:19:21;;;;;;;8.02;0.70;;;;;;;13.60;44.08;100084.69;5417563;26;20007;-65
2024/04/16 02:21:47;;;;;;;2.58;0.63;;;;;;;13.58;44.14;100084.00;5416078;26;20000;-65
2024/04/16 02:24:14;;;;;;;5.85;1.10;;;;;;;13.56;44.51;100085.19;5415954;26;20000;-64
2024/04/16 02:26:39;;;;;;;8.02;0.90;;;;;;;13.52;44.37;100073.06;5387962;26;20003;-65
2024/04/16 02:29:05;;;;;;;3.20;0.73;;;;;;;13.51;44.97;100071.41;5386835;26;19995;-64
2024/04/16 02:31:30;;;;;;;3.20;1.30;;;;;;;13.49;44.49;100062.63;5386146;26;20018;-64
2024/04/16 02:33:56;;;;;;;2.78;0.98;;;;;;;13.50;44.59;100056.25;5386374;26;20455;-64
2024/04/16 02:36:21;;;;;;;3.47;0.77;;;;;;;13.51;44.60;100050.72;5386037;26;20352;-65
2024/04/16 02:38:50;;;;;;;2.40;0.88;;;;;;;13.53;44.34;100058.59;5415663;26;20003;-65
2024/04/16 02:41:15;;;;;;;2.22;0.98;;;;;;;13.51;44.66;100057.94;5356628;26;20393;-64
2024/04/16 02:43:41;;;;;;;4.68;0.75;;;;;;;13.47;44.81;100059.28;5386042;26;20073;-64
2024/04/16 02:46:06;;;;;;;2.50;0.85;;;;;;;13.46;44.48;100055.72;5386621;26;20089;-65
2024/04/16 02:48:32;;;;;;;1.35;0.43;;;;;;;13.47;44.76;100067.34;5386126;26;19999;-65
2024/04/16 02:50:58;;;;;;;4.63;0.88;;;;;;;13.45;44.85;100055.91;5356812;26;20003;-69
2024/04/16 02:53:23;;;;;;;7.72;0.93;;;;;;;13.39;44.94;100070.88;5415634;26;20003;-70
2024/04/16 02:55:49;;;;;;;8.25;0.82;;;;;;;13.30;45.11;100064.63;5385801;26;20003;-70
2024/04/16 02:58:14;;;;;;;5.35;0.80;;;;;;;13.22;45.14;100080.75;5356871;26;19996;-70
2024/04/16 03:00:40;;;;;;;5.43;1.00;;;;;;;13.12;45.67;100071.97;5386124;26;19999;-71
2024/04/16 03:03:05;;;;;;;6.18;0.65;;;;;;;13.05;45.50;100075.44;5386542;26;20007;-70
2024/04/16 03:05:31;;;;;;;3.75;0.68;;;;;;;12.95;45.40;100070.22;5357035;26;20013;-71
2024/04/16 03:07:56;;;;;;;2.03;0.70;;;;;;;12.91;45.59;100057.25;5357383;26;20003;-71
2024/04/16 03:10:22;;;;;;;10.30;1.45;;;;;;;12.91;46.11;100051.88;5359078;26;20010;-70
2024/04/16 03:12:51;;;;;;;6.43;1.13;;;;;;;12.90;45.79;100050.22;5360203;26;20018;-71
2024/04/16 03:15:16;;;;;;;6.95;1.15;;;;;;;12.91;45.86;100052.72;5389235;26;19999;-70
2024/04/16 03:17:42;;;;;;;5.07;0.75;;;;;;;12.91;46.15;100058.09;5420655;26;20088;-70
2024/04/16 03:20:07;;;;;;;4.20;1.08;;;;;;;12.91;46.05;100041.97;5388920;26;20003;-70
2024/04/16 03:22:33;;;;;;;3.35;0.80;;;;;;;12.92;46.25;100032.06;5359630;26;20007;-70
2024/04/16 03:24:58;;;;;;;8.68;1.25;;;;;;;12.88;46.42;100015.44;5388168;26;20467;-68
2024/04/16 03:27:24;;;;;;;9.80;1.17;;;;;;;12.93;46.58;100020.31;5359310;26;20004;-68
2024/04/16 03:29:49;;;;;;;4.63;0.93;;;;;;;12.92;46.15;100021.31;5420198;26;20012;-67
2024/04/16 03:32:15;;;;;;;2.63;1.20;;;;;;;12.95;46.32;100026.38;5359192;26;20003;-67
2024/04/16 03:34:40;;;;;;;4.97;1.20;;;;;;;12.96;46.46;100020.81;5388637;26;19999;-66
2024/04/16 03:37:06;;;;;;;5.05;0.73;;;;;;;12.98;46.57;100028.75;5418261;26;20011;-66
2024/04/16 03:39:31;;;;;;;4.88;0.90;;;;;;;12.95;46.61;100011.09;5418152;26;19999;-65
2024/04/16 03:41:57;;;;;;;2.22;0.95;;;;;;;12.98;46.41;100010.72;5419684;26;20018;-69
2024/04/16 03:44:22;;;;;;;3.47;1.00;;;;;;;13.02;46.57;100014.78;5419900;26;20339;-69
2024/04/16 03:46:48;;;;;;;4.03;0.80;;;;;;;13.05;46.39;100005.56;5419962;26;20471;-68
2024/04/16 03:49:13;;;;;;;4.60;0.60;;;;;;;13.05;46.46;100006.41;5418141;26;20023;-67
2024/04/16 03:51:39;;;;;;;5.65;0.77;;;;;;;13.06;46.49;100002.72;5388700;26;20339;-66
2024/04/16 03:54:04;;;;;;;4.65;1.45;;;;;;;13.06;46.37;99996.50;5388265;26;20014;-66
2024/04/16 03:56:30;;;;;;;3.30;0.90;;;;;;;13.08;46.82;100000.72;5359059;26;20043;-66
2024/04/16 04:01:39;;;;;;;3.70;1.05;;;;;;;13.14;46.61;99989.31;5388065;26;20328;-65
2024/04/16 04:04:05;;;;;;;4.63;1.13;;;;;;;13.19;46.55;99992.34;5388188;26;20013;-65
2024/04/16 04:06:30;;;;;;;6.28;0.82;;;;;;;13.22;46.52;100002.75;5388599;26;20015;-65
2024/04/16 04:08:56;;;;;;;4.57;0.52;;;;;;;13.26;46.67;99997.91;5388511;26;19999;-65
2024/04/16 04:11:21;;;;;;;2.50;0.57;;;;;;;13.23;46.54;99990.97;5388071;26;20014;-65
2024/04/16 04:13:47;;;;;;;1.35;0.70;;;;;;;13.24;46.26;99984.59;5388327;26;20011;-65
2024/04/16 04:16:14;;;;;;;4.82;1.17;;;;;;;13.29;46.45;99989.47;5417796;26;20448;-64
2024/04/16 04:18:40;;;;;;;2.17;0.63;;;;;;;13.26;46.43;99977.19;5419214;26;19995;-66
2024/04/16 04:21:05;;;;;;;6.18;0.80;;;;;;;13.26;46.39;99982.59;5387267;26;20128;-65
2024/04/16 04:23:31;;;;;;;3.30;0.82;;;;;;;13.30;46.34;99977.72;5387704;26;20007;-64
2024/04/16 04:25:56;;;;;;;0.93;0.35;;;;;;;13.28;46.43;99990.50;5387908;26;19995;-65
2024/04/16 04:28:21;;;;;;;9.77;0.70;;;;;;;13.31;46.55;99979.41;5417755;26;20006;-65
2024/04/16 04:30:51;;;;;;;3.50;0.73;;;;;;;13.32;46.33;99987.28;5387973;26;20074;-64
2024/04/16 04:33:16;;;;;;;1.02;0.57;;;;;;;13.31;46.40;99985.63;5387941;26;19996;-65
2024/04/16 04:35:42;;;;;;;1.25;0.68;;;;;;;13.34;46.52;99987.16;5419367;26;20069;-65
2024/04/16 04:38:07;;;;;;;4.82;0.85;;;;;;;13.35;46.57;99981.59;5388095;26;19999;-64
2024/04/16 04:40:34;;;;;;;0.30;0.25;;;;;;;13.31;46.46;99974.03;5387574;26;20061;-64
2024/04/16 04:42:59;;;;;;;4.38;0.95;;;;;;;13.31;46.58;99964.13;5387808;26;20023;-65
2024/04/16 04:45:25;;;;;;;2.53;0.95;;;;;;;13.32;46.49;99965.78;5388025;26;20328;-65
2024/04/16 04:47:51;;;;;;;3.90;0.75;;;;;;;13.30;46.48;99951.66;5358695;26;20007;-64
2024/04/16 04:50:16;;;;;;;3.50;1.02;;;;;;;13.32;46.29;99955.03;5358409;26;20448;-64
2024/04/16 04:52:41;;;;;;;3.53;0.50;;;;;;;13.37;46.20;99947.28;5388306;26;19996;-64
2024/04/16 04:55:07;;;;;;;1.63;0.60;;;;;;;13.43;46.63;99960.06;5387736;26;20428;-65
2024/04/16 04:57:32;;;;;;;3.67;0.70;;;;;;;13.47;46.49;99951.66;5358354;26;20447;-64
2024/04/16 04:59:58;;;;;;;5.35;1.85;;;;;;;13.50;46.36;99951.31;5387616;26;20000;-65
2024/04/16 05:02:24;;;;;;;3.78;0.90;;;;;;;13.53;46.29;99961.75;5358170;26;20003;-65
2024/04/16 05:04:49;;;;;;;2.45;0.63;;;;;;;13.53;46.30;99946.44;5387862;26;19995;-64
2024/04/16 05:07:15;;;;;;;1.52;0.70;;;;;;;13.53;46.20;99946.44;5387863;26;20331;-65
2024/04/16 05:09:40;;;;;;;3.92;0.90;;;;;;;13.56;46.62;99942.56;5387698;26;19996;-65
2024/04/16 05:12:06;;;;;;;2.33;0.50;;;;;;;13.55;46.50;99935.50;5358575;26;20010;-64
2024/04/16 05:14:31;;;;;;;2.70;0.90;;;;;;;13.56;46.57;99934.50;5387543;26;20007;-64
2024/04/16 05:16:57;;;;;;;2.65;0.65;;;;;;;13.58;46.53;99921.72;5387009;26;20094;-65
2024/04/16 05:19:22;;;;;;;1.80;0.98;;;;;;;13.59;46.46;99912.63;5358239;26;20065;-64
2024/04/16 05:21:48;;;;;;;2.28;0.68;;;;;;;13.59;46.54;99912.63;5416782;26;19995;-65
2024/04/16 05:24:13;;;;;;;1.83;0.90;;;;;;;13.63;46.38;99924.72;5386961;26;23815;-64
2024/04/16 05:26:38;;;;;;;1.05;0.85;;;;;;;13.68;46.57;99927.75;5387354;26;20023;-65
2024/04/16 05:29:04;;;;;;;0.93;0.50;;;;;;;13.67;46.67;99926.91;5416991;26;20026;-64
2024/04/16 05:31:30;;;;;;;5.05;1.80;;;;;;;13.67;46.57;99918.84;5416438;26;20018;-67
2024/04/16 05:33:55;;;;;;;1.27;0.68;;;;;;;13.67;46.82;99921.53;5416000;26;20003;-68
2024/04/16 05:36:21;;;;;;;4.57;0.80;;;;;;;13.66;46.65;99922.53;5416846;26;20003;-65
2024/04/16 05:38:46;;;;;;;1.58;0.85;;;;;;;13.59;46.74;99907.25;5387093;26;20069;-68
2024/04/16 05:41:12;;;;;;;4.72;1.45;;;;;;;13.54;47.08;99904.25;5387062;26;20443;-67
2024/04/16 05:43:40;;;;;;;2.53;0.75;;;;;;;13.50;47.37;99902.88;5387095;26;20328;-71
2024/04/16 05:46:06;;;;;;;4.80;0.95;;;;;;;13.43;47.61;99899.22;5387373;26;20003;-70
2024/04/16 05:48:31;;;;;;;4.28;1.20;;;;;;;13.40;47.45;99913.81;5387444;26;20019;-70
2024/04/16 05:50:57;;;;;;;2.47;1.52;;;;;;;13.33;47.38;99912.84;5357986;26;20340;-70
2024/04/16 05:53:22;;;;;;;4.25;0.82;;;;;;;13.25;47.37;99904.78;5386822;26;19999;-71
2024/04/16 05:55:48;;;;;;;4.60;1.00;;;;;;;13.19;47.43;99903.59;5386569;26;19999;-70
2024/04/16 05:58:14;;;;;;;6.32;0.77;;;;;;;13.12;47.86;99899.06;5417942;26;19999;-70
2024/04/16 06:00:40;;;;;;;2.70;0.52;;;;;;;13.02;47.94;99880.38;5418185;26;20018;-68
2024/04/16 06:03:06;;;;;;;4.80;0.60;;;;;;;13.00;48.06;99889.63;5418139;26;19999;-69
2024/04/16 06:05:32;;;;;;;1.30;0.50;;;;;;;12.96;47.77;99877.50;5386429;26;20000;-70
2024/04/16 06:07:58;;;;;;;4.43;0.63;;;;;;;12.94;48.02;99888.44;5417867;26;20004;-69
2024/04/16 06:10:23;;;;;;;1.85;0.70;;;;;;;12.94;48.33;99907.25;5386460;26;20030;-68
2024/04/16 06:12:49;;;;;;;5.18;0.88;;;;;;;12.90;48.20;99900.53;5357350;26;20538;-69
2024/04/16 06:15:14;;;;;;;0.95;0.70;;;;;;;12.87;48.31;99898.16;5386537;26;20007;-70
2024/04/16 06:17:40;;;;;;;1.38;0.40;;;;;;;12.82;48.38;99889.75;5416309;26;20003;-69
2024/04/16 06:20:09;;;;;;;1.80;0.50;;;;;;;12.79;48.69;99906.22;5417682;26;20015;-69
2024/04/16 06:22:36;;;;;;;1.13;0.40;;;;;;;12.78;48.28;99896.50;5386510;26;19999;-69
2024/04/16 06:25:01;;;;;;;1.67;0.40;;;;;;;12.73;48.51;99888.09;5386158;26;19999;-70
2024/04/16 06:27:27;;;;;;;3.25;0.38;;;;;;;12.68;48.75;99899.31;5416328;26;19999;-70
2024/04/16 06:29:52;;;;;;;2.22;0.47;;;;;;;12.71;48.50;99906.22;5357375;26;20014;-70
2024/04/16 06:32:18;;;;;;;2.25;0.68;;;;;;;12.72;48.47;99903.38;5357189;26;20007;-70
2024/04/16 06:34:43;;;;;;;3.03;0.52;;;;;;;12.76;48.92;99882.38;5417742;26;20010;-70
2024/04/16 06:37:09;;;;;;;1.80;0.32;;;;;;;12.80;48.57;99895.31;5386249;26;19999;-70
2024/04/16 06:39:34;;;;;;;0.30;0.20;;;;;;;12.84;48.72;99887.78;5415892;26;20406;-69
2024/04/16 06:42:01;;;;;;;0.88;0.40;;;;;;;12.89;48.46;99877.34;5417658;26;20003;-70
2024/04/16 06:44:27;;;;;;;1.02;0.47;;;;;;;12.95;48.85;99883.91;5385582;26;20007;-69
2024/04/16 06:46:52;;;;;;;2.22;0.40;;;;;;;12.95;48.73;99876.69;5356683;26;20003;-69
2024/04/16 06:49:18;;;;;;;1.42;0.30;;;;;;;12.97;48.74;99881.88;5356975;26;20010;-69
2024/04/16 06:51:45;;;;;;;0.70;0.20;;;;;;;12.96;49.07;99872.97;5386051;26;20019;-68
2024/04/16 06:54:12;;;;;;;2.22;0.47;;;;;;;13.02;48.95;99872.31;5416008;26;20437;-68
2024/04/16 06:56:37;;;;;;;0.70;0.65;;;;;;;13.06;48.86;99870.97;5415995;26;20000;-68
2024/04/16 06:59:03;;;;;;;2.20;0.55;;;;;;;13.13;49.04;99874.69;5357924;26;20505;-68
2024/04/16 07:01:28;;;;;;;0.77;0.38;;;;;;;13.20;49.02;99874.88;5385667;26;20011;-68
2024/04/16 07:03:55;;;;;;;2.08;0.52;;;;;;;13.22;49.10;99879.06;5385915;26;20008;-67
2024/04/16 07:06:20;;;;;;;2.10;0.77;;;;;;;13.24;49.12;99882.41;5386140;26;20010;-67
2024/04/16 07:08:46;;;;;;;1.95;0.68;;;;;;;13.30;49.28;99881.75;5385440;26;20034;-67
2024/04/16 07:11:12;;;;;;;1.35;0.43;;;;;;;13.35;49.33;99882.06;5356363;26;20348;-66
2024/04/16 07:13:43;;;;;;;0.80;0.70;;;;;;;13.40;49.36;99882.38;5385310;26;19996;-66
2024/04/16 07:16:09;;;;;;;2.17;0.60;;;;;;;13.46;49.33;99888.09;5416749;26;19999;-67
2024/04/16 07:18:34;;;;;;;2.13;0.50;;;;;;;13.52;49.39;99873.97;5356264;26;20007;-66
2024/04/16 07:21:00;;;;;;;0.50;0.50;;;;;;;13.58;49.25;99879.50;5385392;26;19996;-66
2024/04/16 07:23:25;;;;;;;1.95;0.70;;;;;;;13.61;49.26;99883.69;5356019;26;20010;-66
2024/04/16 07:25:51;;;;;;;2.13;0.40;;;;;;;13.68;49.55;99884.72;5385200;26;19996;-66
2024/04/16 07:28:16;;;;;;;1.85;0.75;;;;;;;13.75;49.40;99897.28;5356380;26;19996;-66
2024/04/16 07:30:42;;;;;;;3.30;0.77;;;;;;;13.81;49.34;99901.16;5327607;26;20323;-66
2024/04/16 07:33:09;;;;;;;1.92;0.80;;;;;;;13.97;49.42;99896.56;5385681;26;20443;-66
2024/04/16 07:35:34;;;;;;;2.85;0.93;;;;;;;14.10;49.29;99892.47;5385798;26;20011;-66
2024/04/16 07:38:00;;;;;;;2.08;0.73;;;;;;;14.17;49.36;99891.59;5327671;26;20000;-65
2024/04/16 07:40:25;;;;;;;4.60;1.05;;;;;;;14.18;49.44;99890.56;5385387;26;20000;-66
2024/04/16 07:42:51;;;;;;;3.83;1.13;;;;;;;14.26;49.31;99879.78;5356129;26;20073;-65
2024/04/16 07:45:16;;;;;;;4.47;0.70;;;;;;;14.53;49.13;99891.94;5356245;26;20327;-67
2024/04/16 07:47:42;;;;;;;2.60;0.80;;;;;;;14.86;48.92;99876.38;5327515;26;20463;-65
2024/04/16 07:50:07;;;;;;;4.10;0.90;;;;;;;15.15;49.07;99876.50;5385304;26;20014;-65
2024/04/16 07:52:33;;;;;;;4.38;1.00;;;;;;;15.23;48.86;99871.03;5385171;26;19999;-66
2024/04/16 07:54:59;;;;;;;5.88;1.10;;;;;;;15.39;49.14;99875.41;5355977;26;19995;-65
2024/04/16 07:57:25;;;;;;;4.07;1.27;;;;;;;15.47;49.07;99880.75;5388581;26;20455;-66
2024/04/16 07:59:50;;;;;;;1.67;0.75;;;;;;;15.58;48.28;99870.34;5359438;26;19995;-65
2024/04/16 08:02:16;;;;;;;3.80;0.90;;;;;;;15.63;48.76;99876.03;5388384;26;20031;-66
2024/04/16 08:04:41;;;;;;;6.13;1.08;;;;;;;15.67;48.52;99896.25;5388195;26;20487;-66
2024/04/16 08:07:07;;;;;;;3.10;0.93;;;;;;;15.82;48.26;99895.44;5359201;26;20076;-65
2024/04/16 08:09:33;;;;;;;4.10;0.70;;;;;;;16.01;48.59;99894.84;5388391;26;20011;-66
2024/04/16 08:11:59;;;;;;;3.10;0.90;;;;;;;16.17;48.41;99894.66;5359204;26;20018;-65
2024/04/16 08:14:24;;;;;;;7.78;2.10;;;;;;;16.19;48.67;99906.13;5387938;26;20022;-65
2024/04/16 08:16:50;;;;;;;3.00;0.82;;;;;;;16.21;48.35;99906.78;5359013;26;20003;-66
2024/04/16 08:19:15;;;;;;;6.00;1.30;;;;;;;16.28;48.04;99913.09;5419282;26;20022;-66
2024/04/16 08:21:40;;;;;;;6.00;1.02;;;;;;;16.29;48.47;99910.22;5388194;26;20451;-66
2024/04/16 08:24:06;;;;;;;5.40;1.00;;;;;;;16.37;48.76;99932.75;5387898;26;19995;-66
2024/04/16 08:26:31;;;;;;;6.10;1.05;;;;;;;16.40;48.46;99919.72;5419244;26;20076;-65
2024/04/16 08:28:57;;;;;;;6.90;1.30;;;;;;;16.37;48.53;99928.19;5387852;26;20452;-66
2024/04/16 08:31:22;;;;;;;10.40;0.95;;;;;;;16.34;48.23;99944.78;5387769;26;20035;-66
2024/04/16 08:33:48;;;;;;;4.53;0.95;;;;;;;16.24;48.35;99950.50;5419255;26;20000;-65
2024/04/16 08:36:13;;;;;;;4.10;0.90;;;;;;;16.14;48.63;99959.88;5329635;26;20003;-64
2024/04/16 08:38:39;;;;;;;6.10;1.17;;;;;;;16.05;48.88;99950.22;5358753;26;19999;-65
2024/04/16 08:41:04;;;;;;;5.97;0.95;;;;;;;16.35;47.97;99951.88;5329909;26;20015;-66
2024/04/16 08:43:33;;;;;;;8.65;1.30;;;;;;;16.87;47.72;99955.25;5358479;26;19996;-66
2024/04/16 08:46:00;;;;;;;2.60;1.02;;;;;;;16.93;47.64;99969.88;5359308;26;20007;-66
2024/04/16 08:48:28;;;;;;;8.88;1.42;;;;;;;16.96;48.07;99972.22;5388110;26;20019;-67
2024/04/16 08:50:56;;;;;;;6.57;1.00;;;;;;;16.91;48.54;99973.81;5358618;26;20003;-66
2024/04/16 08:53:22;;;;;;;6.32;0.73;;;;;;;16.98;48.61;99963.88;5387445;26;19995;-65
2024/04/16 08:55:47;;;;;;;7.82;1.08;;;;;;;17.03;48.18;99977.69;5416954;26;20081;-65
2024/04/16 08:58:13;;;;;;;6.95;2.10;;;;;;;16.95;48.23;99981.34;5358565;26;20039;-66
2024/04/16 09:00:39;;;;;;;8.55;1.50;;;;;;;16.86;48.73;99977.09;5358470;26;20073;-65
2024/04/16 09:03:04;;;;;;;9.70;0.95;;;;;;;16.79;48.24;99985.13;5329411;26;19996;-65
2024/04/16 09:05:30;;;;;;;5.22;1.55;;;;;;;16.73;48.30;99988.56;5418711;26;20136;-65
2024/04/16 09:07:55;;;;;;;13.32;1.70;;;;;;;16.66;48.64;99982.25;5387031;26;19999;-65
2024/04/16 09:10:22;;;;;;;5.35;0.90;;;;;;;16.73;48.32;99985.88;5387379;26;20106;-65
2024/04/16 09:12:48;;;;;;;8.27;1.08;;;;;;;16.69;48.31;99992.72;5387747;26;20347;-65
2024/04/16 09:15:15;;;;;;;5.00;1.27;;;;;;;16.68;49.09;100001.84;5358280;26;20013;-65
2024/04/16 09:17:47;;;;;;;4.88;1.35;;;;;;;16.68;48.49;100001.84;5419077;26;20022;-65
2024/04/16 09:20:14;;;;;;;4.65;0.90;;;;;;;16.60;48.67;100004.66;5387148;26;20348;-66
2024/04/16 09:22:40;;;;;;;4.07;1.00;;;;;;;16.43;48.56;100008.53;5418695;26;19999;-66
2024/04/16 09:25:09;;;;;;;2.95;1.10;;;;;;;16.36;48.92;100013.00;5387210;26;20355;-70
2024/04/16 09:27:34;;;;;;;5.05;1.17;;;;;;;16.24;49.39;100017.22;5387181;26;20080;-70
2024/04/16 09:30:12;;;;;;;6.68;1.48;;;;;;;16.17;49.26;100024.34;5418460;26;19999;-70
2024/04/16 09:32:38;;;;;;;8.90;1.42;;;;;;;16.11;48.67;100034.03;5387016;26;20338;-71
2024/04/16 09:35:05;;;;;;;8.27;0.90;;;;;;;16.10;49.20;100040.50;5328938;26;20455;-71
2024/04/16 09:37:30;;;;;;;13.30;1.52;;;;;;;16.20;48.96;100040.22;5418826;26;20010;-71
2024/04/16 09:39:58;;;;;;;9.85;1.27;;;;;;;16.26;48.65;100028.66;5358131;26;19999;-70
2024/04/16 09:42:25;;;;;;;3.85;0.77;;;;;;;16.41;48.83;100053.00;5387121;26;20347;-70
2024/04/16 09:44:51;;;;;;;7.85;1.13;;;;;;;16.56;48.53;100045.75;5387092;26;20072;-70
2024/04/16 09:47:17;;;;;;;2.97;0.82;;;;;;;16.98;48.55;100045.91;5387258;26;20011;-70
2024/04/16 09:49:43;;;;;;;10.00;2.00;;;;;;;17.46;47.86;100057.91;5392386;26;20021;-69
2024/04/16 09:52:12;;;;;;;5.90;0.80;;;;;;;17.61;47.60;100053.31;5392678;26;19994;-68
2024/04/16 09:54:37;;;;;;;3.40;0.90;;;;;;;18.00;48.09;100064.50;5392223;26;19991;-68
2024/04/16 09:57:04;;;;;;;5.63;1.05;;;;;;;18.41;46.72;100042.06;5422630;26;20396;-68
2024/04/16 09:59:29;;;;;;;2.75;0.57;;;;;;;18.34;47.01;100046.63;5422015;26;20446;-68
2024/04/16 10:01:55;;;;;;;6.28;0.88;;;;;;;18.26;47.30;100046.75;5407285;26;20002;-68
2024/04/16 10:04:21;;;;;;;4.93;0.32;;;;;;;18.39;46.92;100060.41;5392606;26;20447;-67
2024/04/16 10:06:47;;;;;;;1.45;0.38;;;;;;;18.37;47.01;100049.75;5422310;26;20473;-67
2024/04/16 10:09:17;;;;;;;1.42;0.60;;;;;;;19.29;45.91;100049.41;5363948;26;20006;-66
2024/04/16 10:11:44;;;;;;;1.80;0.43;;;;;;;19.79;45.69;100051.63;5453748;26;19991;-66
2024/04/16 10:14:10;;;;;;;3.83;0.52;;;;;;;21.05;43.81;100047.69;5421875;26;19995;-67
2024/04/16 10:16:35;;;;;;;3.72;0.47;;;;;;;21.86;43.31;100051.44;5392158;26;19995;-67
2024/04/16 10:19:04;;;;;;;1.25;0.20;;;;;;;21.92;43.91;100066.91;5420878;26;20064;-66
2024/04/16 10:21:37;;;;;;;0.43;0.40;;;;;;;22.79;42.87;100064.03;5392146;26;19995;-67
2024/04/16 10:24:07;;;;;;;2.88;0.70;;;;;;;23.81;41.77;100065.88;5387357;26;20005;-68
2024/04/16 10:26:43;;;;;;;5.38;0.65;;;;;;;23.53;41.61;100060.19;5343300;26;19995;-67
2024/04/16 10:29:16;;;;;;;1.75;0.63;;;;;;;23.32;42.01;100056.03;5379749;26;20004;-66
2024/04/16 10:31:44;;;;;;;4.00;0.95;;;;;;;23.74;41.43;100052.28;5355325;26;20022;-67
2024/04/16 10:34:23;;;;;;;4.20;0.80;;;;;;;24.11;41.20;100060.38;5357474;26;20011;-66
2024/04/16 10:36:52;;;;;;;1.60;0.70;;;;;;;24.04;41.30;100057.69;5386410;26;20343;-66
2024/04/16 10:39:18;;;;;;;2.53;0.50;;;;;;;23.58;41.69;100057.59;5356805;26;20011;-67
2024/04/16 10:41:54;;;;;;;3.97;1.02;;;;;;;23.22;41.31;100063.94;5386237;26;20443;-66
2024/04/16 10:44:21;;;;;;;3.03;0.45;;;;;;;22.79;42.01;100050.38;5356837;26;20011;-67
2024/04/16 10:46:47;;;;;;;1.50;0.73;;;;;;;22.57;41.91;100069.06;5386048;26;20003;-66
2024/04/16 10:49:13;;;;;;;2.45;0.63;;;;;;;22.56;41.64;100061.94;5356894;26;20035;-67
2024/04/16 10:51:39;;;;;;;4.20;0.63;;;;;;;22.23;41.79;100090.59;5385867;26;20000;-66
2024/04/16 10:54:08;;;;;;;4.70;0.60;;;;;;;22.00;41.73;100081.13;5385799;26;20324;-66
2024/04/16 10:56:37;;;;;;;3.47;0.52;;;;;;;21.95;41.54;100088.28;5357246;26;20514;-66
2024/04/16 10:59:07;;;;;;;9.80;1.23;;;;;;;22.14;41.36;100086.50;5356392;26;19999;-66
2024/04/16 11:01:33;;;;;;;3.53;0.50;;;;;;;22.18;41.64;100088.53;5379704;26;20080;-66
2024/04/16 11:04:12;;;;;;;1.27;0.28;;;;;;;22.25;41.17;100094.75;5408703;26;20035;-66
2024/04/16 11:06:39;;;;;;;1.35;0.40;;;;;;;22.73;40.79;100091.41;5356320;26;20008;-66
2024/04/16 11:09:04;;;;;;;1.98;0.43;;;;;;;23.38;40.15;100077.00;5385565;26;20000;-66
2024/04/16 11:11:32;;;;;;;2.42;0.68;;;;;;;23.07;40.39;100093.56;5356314;26;19999;-66
2024/04/16 11:13:57;;;;;;;3.78;1.23;;;;;;;22.68;40.66;100085.78;5385168;26;20011;-66
2024/04/16 11:16:23;;;;;;;3.17;0.50;;;;;;;22.33;40.92;100091.78;5356483;26;20040;-67
2024/04/16 11:18:49;;;;;;;2.45;0.60;;;;;;;22.05;41.03;100091.38;5385641;26;20466;-66
2024/04/16 11:21:15;;;;;;;4.70;0.88;;;;;;;21.67;41.28;100090.53;5356509;26;20003;-66
2024/04/16 11:23:40;;;;;;;4.88;1.30;;;;;;;21.28;41.31;100095.16;5385521;26;20000;-66
2024/04/16 11:26:06;;;;;;;0.63;0.30;;;;;;;20.99;41.62;100095.69;5390611;26;19995;-66